• Join FlightAware (Why Join?)
  • Login
  • US Flag 
02:45AM EDT


 

Airport Tracker/Info


-or-


 

Live Flight TrackerFlight Track Log ✈ SWA385 ✈ 07-Jul-2013 ✈ KIAD - KMDW

Flight Track Log - Related Links

Times and Time Zones

All times are in EDT time to prevent confusion due to time zone crossing. See the SWA385 flight status page for this flight to view local times or setup timezone preferences in your user account.

Time Position Orientation Groundspeed Altitude Reporting Facility
EDT Latitude Longitude Course Direction KTS MPH feet Rate Location/Type
07:01PM 38.9333 -77.5167 303° West 188 216 3,000  Level Potomac TRACON
07:03PM 38.9108 -77.6297 256° West 244 281 5,200 2,640 Climbing Washington Center
07:04PM 38.8944 -77.7281 258° West 256 295 9,200 3,240 Climbing Washington Center
07:05PM 38.9031 -77.8244 277° West 266 306 11,700 2,700 Climbing Washington Center
07:06PM 38.9217 -77.9475 281° West 312 359 14,700 2,640 Climbing Washington Center
07:07PM 38.9421 -78.1843 303° West  Level FlightAware Approximate
07:07PM 38.9378 -78.0708 280° West 340 391 17,000  Level Washington Center
07:08PM 38.9561 -78.1942 281° West 353 406 17,800 1,740 Climbing Washington Center
07:09PM 38.9636 -78.3253 274° West 364 419 20,600 2,520 Climbing Washington Center
07:10PM 38.9689 -78.4564 273° West 370 426 23,000 2,280 Climbing Washington Center
07:11PM 38.9719 -78.5953 272° West 380 437 25,200 2,160 Climbing Washington Center
07:12PM 38.9767 -78.7372 272° West 391 450 27,300 1,740 Climbing Washington Center
07:13PM 38.9789 -78.8842 271° West 408 470 28,700 1,320 Climbing Washington Center
07:14PM 38.9828 -79.0392 272° West 423 487 30,000 1,440 Climbing Washington Center
07:15PM 38.9886 -79.1997 273° West 441 507 31,700 1,800 Climbing Washington Center
07:16PM 38.9919 -79.3575 272° West 447 514 33,700 1,980 Climbing Washington Center
07:17PM 38.9933 -79.5125 271° West 447 514 35,700 1,560 Climbing Washington Center
07:18PM 38.9989 -79.6569 273° West 442 509 36,900 1,140 Climbing Washington Center
07:19PM 39.0017 -79.8200 271° West 442 509 38,000 660 Climbing Washington Center
07:19PM 39.0014 -79.9067 270° West 424 488 38,000  Level Indianapolis Center
07:20PM 39.0028 -80.0522 271° West 421 484 38,000  Level Indianapolis Center
07:21PM 39.0058 -80.2044 272° West 424 488 38,000  Level Indianapolis Center
07:22PM 39.0086 -80.3867 271° West 424 488 38,000  Level Indianapolis Center
07:24PM 39.0272 -80.5342 279° West 432 497 38,000  Level Indianapolis Center
07:25PM 39.0869 -80.6728 299° West 444 511 38,000  Level Indianapolis Center
07:26PM 39.1472 -80.8075 300° West 438 504 38,000  Level Indianapolis Center
07:27PM 39.2083 -80.9422 300° West 438 504 38,000  Level Indianapolis Center
07:28PM 39.2681 -81.0772 300° West 435 501 38,000  Level Indianapolis Center
07:29PM 39.3406 -81.2383 300° West 434 499 38,000  Level Indianapolis Center
07:30PM 39.3997 -81.3753 299° West 437 503 38,000  Level Indianapolis Center
07:31PM 39.4597 -81.5108 300° West 436 502 38,000  Level Indianapolis Center
07:32PM 39.5192 -81.6478 299° West 438 504 38,000  Level Indianapolis Center
07:33PM 39.5792 -81.7844 300° West 438 504 38,000  Level Indianapolis Center
07:34PM 39.6378 -81.9217 299° West 438 504 38,000  Level Indianapolis Center
07:35PM 39.6983 -82.0589 300° West 438 504 38,000  Level Indianapolis Center
07:36PM 39.7692 -82.2264 299° West 439 505 38,000  Level Indianapolis Center
07:37PM 39.8292 -82.3672 299° West 442 509 38,000 -360 Level Indianapolis Center
07:38PM 39.8900 -82.5078 299° West 442 509 37,300 -780 Descending Indianapolis Center
07:39PM 39.9486 -82.6478 299° West 439 505 36,400 -660 Descending Indianapolis Center
07:40PM 40.0089 -82.7911 299° West 447 514 36,000 -240 Descending Indianapolis Center
07:41PM 40.0692 -82.9333 299° West 447 514 36,000  Level Indianapolis Center
07:42PM 40.1283 -83.0750 299° West 445 512 36,000  Level Indianapolis Center
07:43PM 40.1972 -83.2397 299° West 442 509 36,000  Level Indianapolis Center
07:44PM 40.2547 -83.3808 298° West 440 506 36,000  Level Indianapolis Center
07:45PM 40.3114 -83.5175 299° West 428 493 36,000  Level Indianapolis Center
07:46PM 40.3681 -83.6553 298° West 429 494 36,000  Level Indianapolis Center
07:47PM 40.4244 -83.7914 299° West 425 489 36,000 -480 Level Indianapolis Center
07:48PM 40.4797 -83.9297 298° West 426 490 35,100 -1,020 Descending Indianapolis Center
07:49PM 40.5442 -84.0864 298° West 416 479 34,000 -1,080 Descending Indianapolis Center
07:50PM 40.5989 -84.2211 298° West 415 478 33,000 -960 Descending Indianapolis Center
07:51PM 40.6467 -84.3603 294° West 415 478 32,100 -960 Descending Indianapolis Center
07:52PM 40.6764 -84.5125 284° West 424 488 31,100 -1,020 Descending Indianapolis Center
07:53PM 40.7056 -84.6639 284° West 423 487 30,100 -540 Descending Indianapolis Center
07:54PM 40.7364 -84.8108 286° West 415 478 30,000 -60 Descending Indianapolis Center
07:55PM 40.7719 -84.9364 291° West 416 479 30,000  Level Chicago Center
07:56PM 40.8481 -85.0439 313° West 403 464 30,000 -720 Level Chicago Center
07:57PM 40.9225 -85.1544 312° West 403 464 28,600 -1,020 Descending Chicago Center
07:58PM 40.9939 -85.2608 312° West 393 452 28,000 -660 Descending Chicago Center
07:59PM 41.0681 -85.3644 314° West 388 447 27,300 -840 Descending Chicago Center
08:00PM 41.1406 -85.4694 313° West 386 444 26,300 -1,680 Descending Chicago Center
08:01PM 41.2264 -85.5939 313° West 381 438 23,900 -1,860 Descending Chicago Center
08:02PM 41.2975 -85.6967 313° West 377 434 22,500 -1,140 Descending Chicago Center
08:04PM 41.3669 -85.7978 312° West 370 426 21,600 -1,500 Descending Chicago Center
08:05PM 41.4339 -85.8956 312° West 356 410 19,400 -2,100 Descending Chicago Center
08:06PM 41.5050 -85.9975 313° West 369 425 17,300 -2,100 Descending Chicago Center
08:07PM 41.5236 -86.1294 281° West 368 423 15,100 -2,100 Descending Chicago Center
08:08PM 41.5231 -86.2614 270° West 358 412 13,000 -2,040 Descending Chicago Center
08:09PM 41.5225 -86.4156 270° West 345 397 10,900 -1,440 Descending Chicago Center
08:10PM 41.5222 -86.5364 270° West 329 379 10,100 -420 Descending Chicago Center
08:11PM 41.5203 -86.6564 269° West 324 373 10,100 -60 Level Chicago Center
08:12PM 41.5203 -86.7844 270° West 319 367 10,000 -540 Descending Chicago Center
08:13PM 41.5192 -86.8928 269° West 299 344 9,000 -1,020 Descending Chicago Center
08:14PM 41.5178 -86.9967 269° West 282 325 7,900 -1,260 Descending Chicago Center
08:15PM 41.5208 -87.0964 272° West 272 313 6,400 -960 Descending Chicago Center
08:16PM 41.5553 -87.2033 293° West 263 303 6,000 -420 Descending Chicago Center
08:17PM 41.5792 -87.2914 290° West 256 295 5,600 -420 Descending Chicago Center
08:18PM 41.6053 -87.3817 291° West 261 300 5,200 -420 Descending Chicago Center
08:19PM 41.6303 -87.4717 290° West 262 302 4,800 -600 Descending Chicago Center
08:20PM 41.6547 -87.5583 291° West 257 296 4,000 -1,020 Descending Chicago Center
08:21PM 41.7028 -87.6358 310° West 242 278 2,700 -960 Descending Chicago Center
08:22PM 41.7511 -87.6686 333° Northwest 226 260 2,100 -540 Descending Chicago Center
08:23PM 41.7972 -87.6639 North 209 241 1,700 -420 Descending Chicago Center
08:24PM 41.8189 -87.7064 304° West 167 192 1,300 -420 Descending Chicago Center
08:25PM 41.7925 -87.7478 229° Southwest 153 176 900 -420 Descending Chicago Center